Time;durP1;ratioP1;P1;durP2;ratioP2;P2;SDS_P1;SDS_P2;PMS_P1;PMS_P2;Temp;Humidity;BMP_temperature;BMP_pressure;BME280_temperature;BME280_humidity;BME280_pressure;Samples;Min_cycle;Max_cycle;Signal;HPM_P1;HPM_P2
2021/03/31 00:00:33;;;;;;;27.55;14.38;;;8.00;99.90;;;9.15;68.54;101520.31;4977425;28;20122;-86
2021/03/31 00:03:11;;;;;;;27.27;14.15;;;7.90;99.90;;;9.03;69.35;101520.13;4960238;28;20023;-86
2021/03/31 00:05:37;;;;;;;24.38;13.90;;;7.80;99.90;;;8.96;69.62;101515.03;4957609;28;20427;-87
2021/03/31 00:08:04;;;;;;;23.38;12.80;;;7.70;99.90;;;8.93;69.87;101512.09;4949339;28;20066;-86
2021/03/31 00:10:45;;;;;;;26.83;13.32;;;7.70;99.90;;;8.91;69.82;101520.78;4980810;28;20034;-87
2021/03/31 00:13:13;;;;;;;27.77;13.65;;;7.60;99.90;;;8.90;70.12;101508.00;4960661;28;20035;-87
2021/03/31 00:15:40;;;;;;;25.98;13.98;;;7.60;99.90;;;8.86;69.74;101506.22;4978607;28;20031;-86
2021/03/31 00:18:13;;;;;;;25.55;14.25;;;7.60;99.90;;;8.81;70.38;101504.38;4968038;28;20031;-84
2021/03/31 00:20:42;;;;;;;25.55;13.80;;;7.50;99.90;;;8.74;70.48;101500.44;4988204;28;20011;-83
2021/03/31 00:23:15;;;;;;;24.40;13.20;;;7.50;99.90;;;8.67;70.86;101502.91;4992993;28;20081;-83
2021/03/31 00:25:42;;;;;;;22.65;11.85;;;7.40;99.90;;;8.55;71.18;101495.16;4973343;28;20031;-87
2021/03/31 00:28:12;;;;;;;24.25;12.73;;;7.30;99.90;;;8.51;71.79;101496.16;4985030;28;20034;-85
2021/03/31 00:30:41;;;;;;;27.05;14.60;;;7.30;99.90;;;8.53;72.05;101491.06;4975994;28;20035;-85
2021/03/31 00:33:09;;;;;;;24.85;14.07;;;7.30;99.90;;;8.51;71.77;101490.59;4978882;28;20046;-84
2021/03/31 00:35:36;;;;;;;28.55;13.85;;;7.30;99.90;;;8.55;71.66;101486.81;4964050;28;20095;-86
2021/03/31 00:38:03;;;;;;;30.15;13.88;;;7.30;99.90;;;8.62;71.86;101484.38;4961576;28;20033;-84
2021/03/31 00:40:46;;;;;;;22.90;12.60;;;7.40;99.90;;;8.60;71.55;101481.09;4957443;29;20025;-85
2021/03/31 00:43:13;;;;;;;25.23;13.00;;;7.30;99.90;;;8.57;72.04;101478.13;4958655;28;20031;-84
2021/03/31 00:45:40;;;;;;;25.63;13.02;;;7.30;99.90;;;8.56;71.87;101473.72;4979653;28;20503;-84
2021/03/31 00:48:08;;;;;;;23.23;12.32;;;7.30;99.90;;;8.54;72.14;101478.78;4957516;29;20491;-87
2021/03/31 00:50:37;;;;;;;22.63;12.65;;;7.30;99.90;;;8.51;72.22;101477.44;4945737;29;20496;-85
2021/03/31 00:53:04;;;;;;;25.65;12.48;;;7.30;99.90;;;8.50;72.69;101463.88;4962409;28;20062;-84
2021/03/31 00:55:31;;;;;;;23.17;11.68;;;7.20;99.90;;;8.45;72.84;101470.41;4961692;29;20090;-85
2021/03/31 00:57:59;;;;;;;23.83;13.07;;;7.20;99.90;;;8.41;72.96;101456.31;4967652;28;20043;-86
2021/03/31 01:00:26;;;;;;;24.38;12.57;;;7.20;99.90;;;8.37;73.02;101457.28;4968182;28;20046;-86
2021/03/31 01:02:52;;;;;;;26.48;12.57;;;7.10;99.90;;;8.33;73.13;101456.28;4969113;28;20027;-83
2021/03/31 01:05:27;;;;;;;28.00;12.80;;;7.10;99.90;;;8.27;73.33;101441.69;4968308;28;20034;-85
2021/03/31 01:07:54;;;;;;;25.70;12.80;;;7.00;99.90;;;8.24;73.59;101450.69;4968583;28;20026;-86
2021/03/31 01:10:32;;;;;;;27.27;13.10;;;7.00;99.90;;;8.24;73.49;101445.13;4969837;28;20526;-86
2021/03/31 01:13:27;;;;;;;25.10;12.77;;;7.00;99.90;;;8.19;73.10;101438.84;4987423;28;20096;-86
2021/03/31 01:16:38;;;;;;;25.88;12.80;;;6.90;99.90;;;8.15;73.61;101424.81;4968578;29;20027;-86
2021/03/31 01:19:54;;;;;;;23.10;12.73;;;6.90;99.90;;;8.17;73.57;101435.59;4971578;29;20131;-87
2021/03/31 01:22:57;;;;;;;22.35;11.50;;;6.90;99.90;;;8.19;73.12;101430.50;4971194;29;20095;-85
2021/03/31 01:25:45;;;;;;;24.17;12.43;;;6.90;99.90;;;8.23;72.93;101423.16;4955050;29;20028;-86
2021/03/31 01:29:04;;;;;;;21.73;11.60;;;7.00;99.90;;;8.15;73.03;101426.75;4954705;29;20047;-87
2021/03/31 01:31:30;;;;;;;23.52;13.05;;;6.90;99.90;;;8.05;73.36;101430.66;4969659;29;20094;-83
2021/03/31 01:34:40;;;;;;;23.13;12.35;;;6.80;99.90;;;8.00;73.66;101427.19;4953703;29;20035;-83
2021/03/31 01:37:25;;;;;;;24.17;13.40;;;6.70;99.90;;;7.89;74.19;101418.31;4982338;28;20114;-84
2021/03/31 01:39:56;;;;;;;26.38;13.48;;;6.70;99.90;;;7.76;74.59;101420.06;4981778;28;20027;-84
2021/03/31 01:42:28;;;;;;;23.92;12.90;;;6.50;99.90;;;7.69;75.76;101419.72;4952877;29;20123;-87
2021/03/31 01:45:01;;;;;;;29.23;12.80;;;6.50;99.90;;;7.72;75.12;101421.03;4960825;29;20024;-86
2021/03/31 01:47:37;;;;;;;23.67;12.20;;;6.50;99.90;;;7.85;74.13;101412.59;4954197;29;20023;-86
2021/03/31 01:50:08;;;;;;;23.33;11.70;;;6.60;99.90;;;7.99;73.14;101415.25;4970038;29;20050;-83
2021/03/31 01:52:37;;;;;;;22.63;11.32;;;6.70;99.90;;;8.06;72.97;101412.00;4975255;28;20046;-86
2021/03/31 01:55:15;;;;;;;25.48;12.13;;;6.70;99.90;;;8.04;72.60;101411.50;4988702;28;20026;-84
2021/03/31 01:57:47;;;;;;;23.27;11.23;;;6.70;99.90;;;7.96;73.15;101402.78;4990743;28;20027;-85
2021/03/31 02:00:18;;;;;;;23.58;12.10;;;6.70;99.90;;;7.95;73.39;101401.16;4973162;28;20148;-85
2021/03/31 02:02:53;;;;;;;26.02;12.55;;;6.70;99.90;;;7.86;73.68;101396.72;4969921;28;20039;-87
2021/03/31 02:05:24;;;;;;;20.23;11.68;;;6.60;99.90;;;7.73;73.96;101395.69;4961320;28;20041;-84
2021/03/31 02:07:53;;;;;;;24.77;12.88;;;6.50;99.90;;;7.68;74.40;101392.22;4957535;29;20027;-86
2021/03/31 02:10:24;;;;;;;23.67;12.27;;;6.50;99.90;;;7.64;74.84;101394.00;4956397;28;20452;-86
2021/03/31 02:12:51;;;;;;;22.50;12.93;;;6.40;99.90;;;7.65;74.79;101388.13;4976425;28;20074;-85
2021/03/31 02:15:29;;;;;;;22.00;12.18;;;6.40;99.90;;;7.58;75.15;101379.41;4958912;28;20110;-87
2021/03/31 02:17:59;;;;;;;27.63;13.07;;;6.40;99.90;;;7.45;75.34;101374.78;4976374;28;20031;-85
2021/03/31 02:20:26;;;;;;;23.17;10.98;;;6.30;99.90;;;7.39;76.01;101371.31;4974658;28;20091;-86
2021/03/31 02:22:54;;;;;;;23.83;11.27;;;6.20;99.90;;;7.44;75.76;101375.94;4974418;28;20406;-85
2021/03/31 02:25:21;;;;;;;21.42;10.77;;;6.20;99.90;;;7.50;75.51;101371.88;4958249;28;20126;-83
2021/03/31 02:27:47;;;;;;;22.63;11.68;;;6.30;99.90;;;7.61;74.62;101370.44;4976742;28;20030;-86
2021/03/31 02:30:22;;;;;;;22.05;9.90;;;6.30;99.90;;;7.78;73.40;101376.06;4976383;28;20026;-85
2021/03/31 02:32:55;;;;;;;22.38;10.18;;;6.50;99.90;;;8.00;72.67;101371.53;4975558;28;20027;-85
2021/03/31 02:35:24;;;;;;;19.75;10.32;;;6.60;99.90;;;8.13;71.86;101370.59;4974558;28;20438;-84
2021/03/31 02:38:01;;;;;;;20.13;11.50;;;6.80;99.90;;;8.10;72.18;101368.47;4975046;28;20030;-83
2021/03/31 02:40:31;;;;;;;17.77;10.50;;;6.80;99.90;;;7.97;72.69;101365.50;4996199;28;20217;-82
2021/03/31 02:43:01;;;;;;;20.92;11.10;;;6.70;99.90;;;7.84;73.76;101372.00;4989924;28;20035;-86
2021/03/31 02:45:31;;;;;;;22.15;10.93;;;6.60;99.90;;;7.67;74.02;101360.84;4977301;28;20074;-86
2021/03/31 02:48:04;;;;;;;29.00;12.60;;;6.40;99.90;;;7.54;74.50;101366.50;4963004;28;20027;-86
2021/03/31 02:50:31;;;;;;;22.25;10.77;;;6.30;99.90;;;7.38;75.19;101366.88;4976940;28;20034;-87
2021/03/31 02:52:59;;;;;;;23.50;11.02;;;6.20;99.90;;;7.26;75.52;101363.88;4978517;28;20023;-86
2021/03/31 02:55:27;;;;;;;25.27;11.45;;;6.10;99.90;;;7.17;75.48;101359.41;4977083;28;20034;-86
2021/03/31 02:57:55;;;;;;;26.50;11.98;;;6.00;99.90;;;7.08;76.12;101353.00;4977081;28;20085;-85
2021/03/31 03:00:24;;;;;;;25.02;12.23;;;5.90;99.90;;;7.00;76.14;101357.34;4959401;28;20175;-86
2021/03/31 03:02:52;;;;;;;23.17;12.07;;;5.80;99.90;;;6.96;76.61;101353.59;4976264;28;20027;-84
2021/03/31 03:05:21;;;;;;;24.20;11.30;;;5.80;99.90;;;6.88;76.30;101357.13;4959632;28;20031;-85
2021/03/31 03:07:48;;;;;;;21.80;11.70;;;5.70;99.90;;;6.78;76.18;101360.16;4952623;29;20031;-84
2021/03/31 03:10:15;;;;;;;22.58;12.30;;;5.60;99.90;;;6.67;77.25;101350.44;4956383;29;20379;-85
2021/03/31 03:13:13;;;;;;;24.13;12.07;;;5.50;99.90;;;6.63;77.04;101346.66;4940094;29;20027;-84
2021/03/31 03:15:40;;;;;;;26.17;11.15;;;5.40;99.90;;;6.62;77.30;101347.78;4925473;29;20051;-85
2021/03/31 03:18:06;;;;;;;21.08;10.35;;;5.40;99.90;;;6.65;77.48;101345.19;4941832;29;20550;-86
2021/03/31 03:20:32;;;;;;;21.80;11.38;;;5.50;99.90;;;6.70;77.40;101338.72;4940328;29;20032;-85
2021/03/31 03:22:59;;;;;;;23.55;11.23;;;5.50;99.90;;;6.72;77.19;101345.56;4957542;29;20133;-86
2021/03/31 03:25:27;;;;;;;23.67;11.48;;;5.50;99.90;;;6.79;76.93;101345.13;4943591;29;20032;-85
2021/03/31 03:27:56;;;;;;;16.55;9.98;;;5.50;99.90;;;6.84;76.75;101343.03;4943111;29;20039;-84
2021/03/31 03:30:25;;;;;;;20.90;10.48;;;5.60;99.90;;;6.90;76.45;101339.00;4941180;29;20035;-83
2021/03/31 03:32:53;;;;;;;18.90;10.90;;;5.70;99.90;;;6.88;76.10;101332.13;4955762;29;20514;-86
2021/03/31 03:35:27;;;;;;;21.38;10.18;;;5.70;99.90;;;6.80;76.33;101332.91;4955988;29;20034;-87
2021/03/31 03:37:55;;;;;;;20.52;9.95;;;5.60;99.90;;;6.79;76.47;101318.19;4954787;29;20035;-86
2021/03/31 03:40:26;;;;;;;21.77;10.98;;;5.60;99.90;;;6.82;76.82;101330.63;4939117;29;20023;-83
2021/03/31 03:42:54;;;;;;;24.70;9.93;;;5.60;99.90;;;6.88;76.49;101321.84;4956012;29;20058;-85
2021/03/31 03:45:25;;;;;;;20.25;9.43;;;5.70;99.90;;;6.95;76.24;101326.13;4971322;28;20390;-85
2021/03/31 03:47:54;;;;;;;20.25;10.48;;;5.80;99.90;;;7.08;75.48;101330.78;4958691;28;20109;-85
2021/03/31 03:50:22;;;;;;;19.48;9.77;;;5.80;99.90;;;7.09;75.19;101324.91;4973905;28;20047;-84
2021/03/31 03:52:51;;;;;;;22.92;10.77;;;5.80;99.90;;;7.08;75.87;101316.88;4975716;28;20034;-82
2021/03/31 03:55:25;;;;;;;21.50;11.70;;;5.80;99.90;;;7.07;75.68;101320.78;4974738;28;20034;-85
2021/03/31 03:57:52;;;;;;;21.80;10.85;;;5.80;99.90;;;7.00;75.92;101312.91;4974491;28;20041;-86
2021/03/31 04:00:24;;;;;;;22.10;12.23;;;5.80;99.90;;;6.88;76.28;101323.78;4975689;28;20053;-82
2021/03/31 04:02:53;;;;;;;26.20;13.27;;;5.70;99.90;;;6.78;76.65;101315.72;4974460;28;20383;-83
2021/03/31 04:05:20;;;;;;;26.98;13.25;;;5.60;99.90;;;6.71;76.97;101321.72;4958494;28;20031;-84
2021/03/31 04:07:46;;;;;;;21.13;11.43;;;5.50;99.90;;;6.66;77.47;101319.09;4973322;28;20035;-87
2021/03/31 04:10:17;;;;;;;22.88;11.90;;;5.50;99.90;;;6.60;77.76;101319.53;4962441;28;20031;-86
2021/03/31 04:12:44;;;;;;;24.75;12.60;;;5.40;99.90;;;6.48;77.73;101316.50;4960200;29;20484;-85
2021/03/31 04:15:14;;;;;;;22.75;12.73;;;5.30;99.90;;;6.38;78.32;101325.06;4944558;28;20484;-85
2021/03/31 04:17:44;;;;;;;28.33;12.63;;;5.20;99.90;;;6.34;78.49;101333.19;4948842;29;20503;-87
2021/03/31 04:20:15;;;;;;;25.08;12.18;;;5.20;99.90;;;6.38;78.18;101325.06;4960275;28;20023;-84
2021/03/31 04:22:45;;;;;;;20.95;11.27;;;5.20;99.90;;;6.44;78.55;101329.34;4961687;28;20499;-83
2021/03/31 04:25:12;;;;;;;19.65;10.43;;;5.20;99.90;;;6.45;78.04;101333.78;4976409;28;20031;-85
2021/03/31 04:27:40;;;;;;;26.10;11.13;;;5.20;99.90;;;6.35;78.06;101329.28;4971854;28;20023;-88
2021/03/31 04:30:13;;;;;;;22.40;11.63;;;5.20;99.90;;;6.25;78.22;101323.97;4958553;28;20075;-84
2021/03/31 04:32:44;;;;;;;23.85;11.48;;;5.10;99.90;;;6.34;78.31;101317.38;4967427;28;20035;-85
2021/03/31 04:35:14;;;;;;;20.30;10.98;;;5.10;99.90;;;6.64;76.87;101313.03;4972591;28;20206;-85
2021/03/31 04:37:40;;;;;;;18.90;10.30;;;5.30;99.90;;;6.76;76.00;101304.94;4981865;28;20041;-84
2021/03/31 04:40:14;;;;;;;20.15;9.65;;;5.50;99.90;;;6.84;75.53;101311.69;4960495;28;20144;-85
2021/03/31 04:42:40;;;;;;;23.17;9.60;;;5.60;99.90;;;6.87;75.37;101313.84;4962425;28;20113;-83
2021/03/31 04:45:11;;;;;;;21.20;9.73;;;5.60;99.90;;;6.81;75.75;101310.34;4978895;28;20436;-84
2021/03/31 04:47:38;;;;;;;20.27;9.90;;;5.60;99.90;;;6.79;75.87;101301.53;4971380;28;20390;-84
2021/03/31 04:50:10;;;;;;;23.25;9.68;;;5.60;99.90;;;6.86;75.36;101304.69;4962026;28;20031;-84
2021/03/31 04:52:37;;;;;;;18.85;9.63;;;5.60;99.90;;;6.83;75.16;101304.50;4977254;28;20034;-82
2021/03/31 04:55:05;;;;;;;19.83;10.23;;;5.60;99.90;;;6.74;75.62;101301.66;4957418;29;20028;-83
2021/03/31 04:57:32;;;;;;;20.40;10.10;;;5.50;99.90;;;6.69;76.05;101307.34;4942533;29;20038;-81
2021/03/31 05:00:00;;;;;;;23.88;9.40;;;5.50;99.90;;;6.63;76.19;101300.28;4954995;29;20111;-81
2021/03/31 05:02:26;;;;;;;20.75;10.02;;;5.50;99.90;;;6.56;76.58;101302.69;4952006;28;20440;-84
2021/03/31 05:04:52;;;;;;;21.40;9.70;;;5.40;99.90;;;6.55;76.43;101301.03;4942761;29;20142;-86
2021/03/31 05:07:18;;;;;;;25.23;10.55;;;5.40;99.90;;;6.61;76.59;101305.34;4942442;29;20035;-87
2021/03/31 05:09:43;;;;;;;17.88;9.45;;;5.40;99.90;;;6.68;76.43;101297.38;4941688;29;20080;-84
2021/03/31 05:12:09;;;;;;;19.88;9.35;;;5.50;99.90;;;6.74;76.31;101298.88;4971546;28;20081;-83
2021/03/31 05:14:35;;;;;;;18.85;9.77;;;5.50;99.90;;;6.75;75.87;101292.19;4963134;28;20070;-85
2021/03/31 05:17:01;;;;;;;23.77;9.88;;;5.50;99.90;;;6.70;76.04;101297.06;4978040;28;20023;-84
2021/03/31 05:19:27;;;;;;;22.73;9.20;;;5.50;99.90;;;6.59;76.63;101299.28;4954184;28;20063;-83
2021/03/31 05:21:53;;;;;;;24.65;10.73;;;5.40;99.90;;;6.58;76.82;101297.63;4959408;29;20027;-84
2021/03/31 05:24:19;;;;;;;22.60;9.15;;;5.40;99.90;;;6.62;76.90;101286.72;4941916;29;20027;-83
2021/03/31 05:26:44;;;;;;;18.25;9.00;;;5.40;99.90;;;6.78;76.34;101293.50;4959174;29;20395;-84
2021/03/31 05:29:10;;;;;;;16.75;9.57;;;5.50;99.90;;;6.89;75.72;101295.72;4959611;29;20027;-83
2021/03/31 05:31:36;;;;;;;20.15;9.23;;;5.60;99.90;;;6.97;75.79;101294.13;4960025;29;20042;-85
2021/03/31 05:34:02;;;;;;;20.23;9.80;;;5.70;99.90;;;7.02;75.44;101291.22;4958654;29;20031;-83
2021/03/31 05:36:28;;;;;;;24.15;9.13;;;5.70;99.90;;;6.95;75.33;101290.03;4958878;29;20034;-85
2021/03/31 05:38:53;;;;;;;17.00;10.07;;;5.70;99.90;;;6.92;75.96;101287.88;4958614;29;20046;-84
2021/03/31 06:53:51;;;;;;;13.20;7.25;;;13.80;99.90;;;16.20;47.54;101278.91;5013947;28;20053;-85
2021/03/31 06:56:29;;;;;;;14.05;7.00;;;14.10;98.30;;;16.17;46.95;101285.31;5001605;28;20029;-85
2021/03/31 06:59:04;;;;;;;11.60;6.60;;;14.20;95.80;;;16.21;46.98;101280.53;5004020;28;20032;-84
2021/03/31 07:01:32;;;;;;;12.52;6.10;;;14.30;94.10;;;16.39;45.27;101279.97;5002001;28;20080;-86
2021/03/31 07:04:05;;;;;;;12.35;6.22;;;14.50;91.00;;;16.77;45.20;101271.22;4994910;28;20025;-86
2021/03/31 07:06:32;;;;;;;11.25;5.85;;;14.70;90.50;;;17.21;43.23;101277.75;5001522;28;20473;-86
2021/03/31 07:08:58;;;;;;;13.48;6.57;;;15.20;84.10;;;17.64;40.03;101266.88;5002428;28;20057;-86
2021/03/31 07:11:41;;;;;;;11.20;6.68;;;15.60;75.10;;;18.15;38.85;101281.75;5002094;28;20123;-86
2021/03/31 07:14:10;;;;;;;11.27;6.13;;;16.00;70.30;;;18.54;37.28;101273.53;5006045;28;20128;-87
2021/03/31 07:16:40;;;;;;;10.13;5.85;;;16.50;66.70;;;18.88;37.10;101269.19;4995867;28;20037;-88
2021/03/31 07:19:13;;;;;;;13.10;6.28;;;16.80;64.60;;;19.22;36.83;101268.88;5020412;28;20025;-85
2021/03/31 07:21:42;;;;;;;14.43;6.38;;;17.00;63.80;;;19.54;35.37;101277.44;5003195;28;20022;-87
2021/03/31 07:24:11;;;;;;;12.65;6.57;;;17.50;61.30;;;19.85;35.01;101277.44;5015683;28;20026;-87
2021/03/31 07:26:49;;;;;;;11.38;5.15;;;17.70;59.40;;;20.12;34.59;101272.13;5012738;28;20026;-88
2021/03/31 07:29:19;;;;;;;13.32;6.00;;;18.00;58.80;;;20.13;34.13;101270.91;5012275;28;20025;-81
2021/03/31 07:31:53;;;;;;;14.90;6.15;;;18.30;57.00;;;20.29;34.02;101265.63;5002142;28;20030;-84
2021/03/31 07:34:32;;;;;;;12.15;6.38;;;18.40;56.90;;;20.84;33.30;101271.47;5016498;28;20029;-87
2021/03/31 07:37:02;;;;;;;11.05;6.38;;;18.80;55.60;;;21.07;32.18;101258.78;5016214;28;20034;-87
2021/03/31 07:39:32;;;;;;;10.43;6.47;;;19.10;54.40;;;21.36;30.59;101268.75;5000273;28;20098;-87
2021/03/31 07:42:09;;;;;;;13.25;6.00;;;19.30;51.70;;;21.69;31.44;101268.09;5000717;28;20018;-84
2021/03/31 07:44:36;;;;;;;12.48;5.88;;;19.60;53.00;;;21.69;30.86;101258.75;5003896;28;20362;-86
2021/03/31 07:47:07;;;;;;;10.93;5.57;;;19.90;51.20;;;22.01;30.62;101265.78;5001279;28;20121;-84
2021/03/31 07:49:39;;;;;;;11.20;5.55;;;20.00;50.50;;;22.16;29.32;101260.75;5000514;28;20053;-84
2021/03/31 07:52:13;;;;;;;10.88;5.97;;;20.30;48.50;;;22.21;29.54;101253.81;5000022;28;20541;-84
2021/03/31 07:54:45;;;;;;;13.55;5.90;;;20.50;48.60;;;22.72;28.93;101252.81;5002343;28;20025;-85
2021/03/31 07:57:31;;;;;;;12.38;5.55;;;20.80;48.00;;;23.19;27.81;101250.91;5019613;28;20238;-84
2021/03/31 08:00:02;;;;;;;14.80;6.60;;;21.10;47.40;;;22.99;27.18;101250.78;5004221;28;20025;-86
2021/03/31 08:02:34;;;;;;;12.43;6.47;;;21.20;45.20;;;23.38;26.70;101250.19;5002776;28;20025;-83
2021/03/31 08:05:12;;;;;;;12.48;6.00;;;21.40;45.00;;;23.72;26.81;101250.91;5002865;28;20084;-83
2021/03/31 08:08:03;;;;;;;10.05;5.80;;;21.70;45.00;;;24.27;27.14;101258.88;5002728;28;20068;-84
2021/03/31 08:10:36;;;;;;;12.73;5.88;;;22.00;45.60;;;24.29;25.88;101259.25;5003241;28;20026;-82
2021/03/31 08:13:38;;;;;;;11.38;5.50;;;22.20;43.30;;;24.56;24.85;101267.69;5023309;28;20026;-83
2021/03/31 08:16:45;;;;;;;9.07;5.70;;;22.50;42.90;;;24.92;25.62;101262.81;5003384;28;20044;-85
2021/03/31 08:19:24;;;;;;;14.60;6.45;;;22.60;43.10;;;25.30;25.19;101254.59;5003815;28;20028;-81
2021/03/31 08:21:57;;;;;;;8.77;5.78;;;23.00;42.40;;;25.52;24.86;101263.50;5005561;28;20029;-86
2021/03/31 08:24:46;;;;;;;10.52;5.82;;;23.10;41.60;;;25.79;24.28;101257.50;5021847;28;20049;-83
2021/03/31 08:27:15;;;;;;;14.27;6.88;;;23.40;41.50;;;26.00;23.35;101254.09;5003092;28;20029;-81
2021/03/31 08:29:42;;;;;;;10.73;7.10;;;23.60;40.20;;;26.29;22.89;101257.81;5002921;28;20456;-84
2021/03/31 08:32:11;;;;;;;11.27;6.38;;;23.70;39.30;;;26.60;23.43;101258.94;5004852;28;20371;-86
2021/03/31 08:34:38;;;;;;;8.18;4.95;;;24.00;40.50;;;26.95;23.31;101264.91;5002411;28;20398;-85
2021/03/31 08:37:17;;;;;;;10.95;5.80;;;24.30;39.90;;;26.88;22.91;101259.38;5003919;28;20030;-85
2021/03/31 08:39:46;;;;;;;9.18;6.15;;;24.50;39.10;;;27.25;21.39;101258.63;5002181;28;20030;-83
2021/03/31 08:42:12;;;;;;;10.38;6.45;;;24.70;37.00;;;26.86;22.30;101253.31;5003029;28;20147;-82
2021/03/31 08:44:42;;;;;;;10.98;5.82;;;24.60;37.40;;;26.88;22.94;101250.78;5003148;28;20021;-82
2021/03/31 08:47:18;;;;;;;7.95;5.40;;;24.60;38.70;;;27.06;21.82;101253.91;5003080;28;20370;-84
2021/03/31 08:49:49;;;;;;;9.93;5.40;;;24.80;38.20;;;27.44;22.72;101246.16;5001456;28;20400;-85
2021/03/31 08:52:24;;;;;;;8.77;5.53;;;25.00;39.00;;;27.11;21.77;101248.41;5001089;28;20473;-83
2021/03/31 08:54:57;;;;;;;9.25;4.85;;;25.00;36.60;;;27.01;21.18;101254.47;5001965;28;20038;-85
2021/03/31 08:57:31;;;;;;;10.88;5.40;;;25.00;35.60;;;27.30;21.11;101254.38;5004578;28;20088;-83
2021/03/31 09:00:03;;;;;;;9.32;5.55;;;25.00;35.60;;;27.43;20.82;101260.91;5002039;28;20022;-85
2021/03/31 09:02:38;;;;;;;9.73;6.03;;;25.10;35.80;;;27.12;21.04;101249.22;5002592;28;20103;-86
2021/03/31 09:05:16;;;;;;;;;;;25.00;35.20;;;27.01;21.99;101245.88;5001961;28;20057;-84
2021/03/31 09:07:43;;;;;;;9.63;5.35;;;25.00;36.60;;;27.77;20.79;101253.19;5005744;28;19959;-88
2021/03/31 09:10:13;;;;;;;7.78;5.10;;;25.30;35.60;;;27.42;21.58;101242.88;5004506;28;20120;-86
2021/03/31 09:12:40;;;;;;;10.40;5.57;;;25.30;36.40;;;27.77;21.65;101235.19;5002466;28;20045;-83
2021/03/31 09:15:07;;;;;;;7.82;4.72;;;25.30;36.70;;;27.75;21.01;101241.38;5003514;28;20132;-81
2021/03/31 09:17:39;;;;;;;8.70;4.78;;;25.40;35.60;;;27.69;20.67;101234.63;5002382;28;20041;-84
2021/03/31 09:20:10;;;;;;;7.03;4.72;;;25.50;34.80;;;28.42;21.20;101235.31;5001470;28;20032;-83
2021/03/31 09:22:37;;;;;;;7.90;4.65;;;25.70;36.40;;;28.46;19.52;101227.38;5003188;28;20022;-83
2021/03/31 09:25:21;;;;;;;7.57;4.50;;;25.90;33.90;;;28.60;19.41;101226.03;5001285;28;20333;-84
2021/03/31 09:27:50;;;;;;;8.50;4.40;;;26.10;33.70;;;28.44;20.62;101232.78;5001465;28;20029;-84
2021/03/31 09:30:17;;;;;;;8.30;5.18;;;26.20;35.20;;;28.87;20.20;101228.28;5001650;28;20107;-84
2021/03/31 09:32:53;;;;;;;7.00;4.85;;;26.30;35.60;;;28.83;19.69;101234.19;5012465;28;20460;-84
2021/03/31 09:35:22;;;;;;;12.50;5.13;;;26.30;34.70;;;28.39;22.04;101226.81;5004236;28;20086;-87
2021/03/31 09:37:51;;;;;;;8.80;4.65;;;26.30;36.40;;;28.09;20.08;101229.16;5012440;28;20076;-86
2021/03/31 09:40:29;;;;;;;7.68;4.20;;;26.10;34.00;;;28.52;19.27;101227.56;5003483;28;20116;-86
2021/03/31 09:42:59;;;;;;;8.40;5.05;;;26.10;34.10;;;28.09;21.16;101228.34;5004873;28;20362;-86
2021/03/31 09:45:34;;;;;;;7.78;4.75;;;26.00;35.30;;;28.15;19.40;101221.56;5004570;28;20036;-86
2021/03/31 09:48:04;;;;;;;7.93;4.93;;;26.00;33.20;;;27.95;20.22;101229.63;5006332;28;20161;-85
2021/03/31 09:50:35;;;;;;;10.52;4.82;;;25.80;34.20;;;27.46;20.30;101220.66;5007637;28;20034;-89
2021/03/31 09:53:06;;;;;;;10.70;4.78;;;25.60;33.90;;;27.71;21.33;101214.88;5026348;28;20041;-82
2021/03/31 09:55:38;;;;;;;10.57;5.05;;;25.60;35.20;;;28.27;20.31;101214.13;5024050;28;20057;-86
2021/03/31 09:58:05;;;;;;;8.52;5.10;;;25.90;34.70;;;28.61;20.54;101211.19;5004594;28;20025;-87
2021/03/31 10:00:40;;;;;;;7.93;5.63;;;26.10;35.40;;;28.68;19.05;101202.31;5004162;28;20508;-84
2021/03/31 10:03:08;;;;;;;9.52;5.63;;;26.40;32.80;;;28.38;19.21;101208.00;5003748;28;20093;-86
2021/03/31 10:05:35;;;;;;;11.48;5.10;;;26.10;32.70;;;28.37;19.22;101200.63;5020243;28;20109;-87
2021/03/31 10:08:06;;;;;;;10.82;4.75;;;26.10;33.30;;;28.07;19.85;101202.16;5011901;28;20057;-86
2021/03/31 10:10:54;;;;;;;11.38;5.05;;;26.00;33.50;;;28.55;21.12;101197.88;5020759;28;20043;-87
2021/03/31 10:13:24;;;;;;;7.40;4.20;;;26.20;35.70;;;28.89;19.57;101199.88;5028596;28;20159;-88
2021/03/31 10:16:05;;;;;;;8.68;5.10;;;26.50;33.60;;;29.15;19.17;101196.34;5021496;28;20057;-86
2021/03/31 10:18:34;;;;;;;14.68;4.80;;;26.70;32.70;;;29.08;20.47;101193.75;5021668;28;20027;-88
2021/03/31 10:21:03;;;;;;;8.88;4.80;;;26.80;34.30;;;29.52;20.38;101190.69;5024568;28;20466;-85
2021/03/31 10:23:41;;;;;;;8.25;4.40;;;27.00;35.30;;;29.74;18.14;101191.38;5020876;28;20428;-83
2021/03/31 10:26:28;;;;;;;11.32;4.47;;;27.20;31.60;;;29.87;18.14;101179.75;5038918;28;20072;-85
2021/03/31 10:29:23;;;;;;;7.40;4.43;;;27.30;32.50;;;29.72;18.72;101179.56;5023442;28;20064;-83
2021/03/31 10:31:57;;;;;;;10.35;4.93;;;27.30;32.00;;;29.54;18.66;101171.66;5025591;28;20033;-84
2021/03/31 10:34:46;;;;;;;8.32;4.50;;;27.20;32.30;;;29.10;17.60;101179.69;5021216;28;20100;-84
2021/03/31 10:37:34;;;;;;;7.95;4.22;;;27.00;30.10;;;29.34;18.21;101167.66;5019745;28;20271;-84
2021/03/31 10:51:54;;;;;;;9.25;4.40;;;27.10;31.30;;;29.04;17.86;101172.16;4990267;28;20042;-87
2021/03/31 10:54:24;;;;;;;8.35;4.05;;;27.00;30.40;;;29.02;18.03;101166.06;4982774;28;20038;-86
2021/03/31 10:56:55;;;;;;;13.60;4.85;;;26.90;31.10;;;28.91;19.51;101159.94;4997166;28;20031;-87
2021/03/31 10:59:24;;;;;;;7.03;4.10;;;26.80;33.00;;;28.92;19.22;101158.69;4997982;28;20061;-85
2021/03/31 11:01:50;;;;;;;10.75;4.53;;;26.80;32.60;;;29.57;18.52;101162.09;4982402;28;20085;-86
2021/03/31 11:04:15;;;;;;;8.23;4.07;;;27.00;32.00;;;29.77;18.82;101144.34;5018213;28;20022;-87
2021/03/31 11:06:41;;;;;;;11.65;4.78;;;27.20;32.20;;;30.05;19.67;101146.00;5000599;28;20034;-85
2021/03/31 11:09:07;;;;;;;6.53;4.38;;;27.50;33.80;;;30.25;18.45;101140.53;5001847;28;20456;-83
2021/03/31 11:11:33;;;;;;;8.95;4.32;;;27.70;31.70;;;30.02;18.15;101143.28;5001202;28;20116;-86
2021/03/31 11:13:59;;;;;;;8.23;5.03;;;27.70;30.80;;;29.75;17.65;101136.22;5020788;28;20025;-86
2021/03/31 11:16:26;;;;;;;10.70;5.07;;;27.60;30.10;;;29.55;19.88;101135.88;5000123;28;20034;-83
2021/03/31 11:26:47;;;;;;;8.23;4.50;;;27.80;32.80;;;30.06;18.86;101115.09;5018432;28;20107;-84
2021/03/31 11:29:13;;;;;;;12.00;4.07;;;27.90;31.80;;;30.64;18.79;101114.81;5019801;28;20268;-84
2021/03/31 11:31:40;;;;;;;8.85;3.75;;;28.00;32.40;;;30.80;17.42;101121.03;5001356;28;20036;-84
2021/03/31 11:34:06;;;;;;;7.30;3.85;;;28.20;30.50;;;30.96;18.18;101110.41;5018912;28;20033;-84
2021/03/31 11:36:33;;;;;;;11.32;4.95;;;28.50;31.30;;;30.95;16.89;101105.91;5000813;28;20064;-85
2021/03/31 11:39:01;;;;;;;5.95;4.18;;;28.50;29.70;;;30.64;18.53;101101.22;5002228;28;20022;-85
2021/03/31 11:41:27;;;;;;;15.20;5.40;;;28.40;31.30;;;31.03;18.00;101102.19;5044380;23;20378;-88
2021/03/31 11:43:53;;;;;;;8.20;3.80;;;28.60;31.70;;;30.77;19.19;101096.03;5018020;28;20038;-88
2021/03/31 11:46:19;;;;;;;8.40;4.82;;;28.60;33.20;;;30.38;18.04;101097.09;5018681;28;20033;-86
2021/03/31 11:48:45;;;;;;;8.10;4.63;;;28.40;31.00;;;30.76;18.96;101100.19;5020980;28;20364;-87
2021/03/31 11:51:13;;;;;;;8.43;5.22;;;28.50;32.20;;;30.61;17.24;101095.63;5043034;28;20076;-85
2021/03/31 11:53:39;;;;;;;8.95;4.82;;;28.30;29.80;;;30.65;18.45;101087.59;5005024;28;20137;-87
2021/03/31 11:56:06;;;;;;;7.80;4.60;;;28.30;31.60;;;30.76;17.11;101082.91;5005301;28;20046;-87
2021/03/31 11:58:32;;;;;;;7.45;4.47;;;28.40;30.00;;;30.74;17.21;101082.59;5002465;28;20030;-89
2021/03/31 12:00:59;;;;;;;10.68;5.07;;;28.40;29.90;;;31.04;18.43;101086.50;4998977;28;20131;-88
2021/03/31 12:03:25;;;;;;;6.65;4.68;;;28.60;31.50;;;31.43;17.97;101081.59;4999186;28;20505;-86